Time;durP1;ratioP1;P1;durP2;ratioP2;P2;SDS_P1;SDS_P2;PMS_P1;PMS_P2;Temp;Humidity;BMP_temperature;BMP_pressure;BME280_temperature;BME280_humidity;BME280_pressure;Samples;Min_cycle;Max_cycle;Signal;HPM_P1;HPM_P2
2021/05/29 00:07:29;;;;;;;12.2;9.1;;;;;;;11.56;100;98823.02;;;;
2021/05/29 00:17:27;;;;;;;12.2;8.2;;;;;;;11.37;100;98825.92;;;;
2021/05/29 00:27:25;;;;;;;11.7;10;;;;;;;11.2;100;98828.48;;;;
2021/05/29 00:37:24;;;;;;;14.7;10.4;;;;;;;11.23;100;98818.98;;;;
2021/05/29 00:47:23;;;;;;;12;10.8;;;;;;;11.09;100;98808.24;;;;
2021/05/29 00:57:22;;;;;;;13.3;11.5;;;;;;;11.05;100;98813.45;;;;
2021/05/29 01:07:21;;;;;;;12.6;9.2;;;;;;;11.12;100;98818.42;;;;
2021/05/29 01:17:20;;;;;;;16.9;12.7;;;;;;;11.14;100;98804.64;;;;
2021/05/29 01:27:18;;;;;;;15.8;13.5;;;;;;;11.11;100;98806.83;;;;
2021/05/29 01:37:17;;;;;;;19.8;14.3;;;;;;;11.1;100;98799.86;;;;
2021/05/29 01:47:16;;;;;;;15.5;13.3;;;;;;;11.05;100;98801.86;;;;
2021/05/29 01:57:15;;;;;;;21.2;18.2;;;;;;;11.14;100;98801.94;;;;
2021/05/29 02:07:14;;;;;;;16.8;14.3;;;;;;;11.11;100;98796.03;;;;
2021/05/29 02:17:12;;;;;;;18.4;14.6;;;;;;;11.11;100;98790.64;;;;
2021/05/29 02:27:11;;;;;;;18.5;16.6;;;;;;;11.12;100;98786.05;;;;
2021/05/29 02:37:10;;;;;;;18.1;14.4;;;;;;;11.08;100;98787.76;;;;
2021/05/29 02:47:09;;;;;;;17.8;15.1;;;;;;;11.16;100;98786.23;;;;
2021/05/29 02:57:07;;;;;;;19.2;15.6;;;;;;;11.16;100;98780.84;;;;
2021/05/29 03:07:06;;;;;;;22.2;16.4;;;;;;;11.02;100;98786.28;;;;
2021/05/29 03:17:05;;;;;;;18.6;16.6;;;;;;;11.01;100;98779.3;;;;
2021/05/29 03:27:04;;;;;;;16.4;14.4;;;;;;;11.05;100;98783.78;;;;
2021/05/29 03:37:02;;;;;;;19.3;17.3;;;;;;;11.03;100;98790.59;;;;
2021/05/29 03:47:01;;;;;;;21;17.4;;;;;;;11.03;100;98788.69;;;;
2021/05/29 03:57:00;;;;;;;18.4;14.9;;;;;;;11.14;100;98794.65;;;;
2021/05/29 04:07:00;;;;;;;18.6;15.8;;;;;;;11.13;100;98798.44;;;;
2021/05/29 04:16:57;;;;;;;19.8;15.9;;;;;;;11.26;100;98802.17;;;;
2021/05/29 04:26:56;;;;;;;11.6;10;;;;;;;11.16;100;98813.21;;;;
2021/05/29 04:36:55;;;;;;;10.3;7.6;;;;;;;11.13;100;98822.72;;;;
2021/05/29 04:46:54;;;;;;;11.8;8.2;;;;;;;10.86;100;98828.99;;;;
2021/05/29 04:56:53;;;;;;;6.5;5.3;;;;;;;10.64;100;98834.31;;;;
2021/05/29 05:06:51;;;;;;;5.4;3.1;;;;;;;10.29;100;98841.21;;;;
2021/05/29 05:16:50;;;;;;;7.1;3.3;;;;;;;10.37;100;98842.42;;;;
2021/05/29 05:26:48;;;;;;;4.5;2.4;;;;;;;10.58;100;98846.3;;;;
2021/05/29 05:36:47;;;;;;;8.3;3.5;;;;;;;10.66;100;98850.97;;;;
2021/05/29 05:46:46;;;;;;;4.7;3.1;;;;;;;10.81;100;98853.36;;;;
2021/05/29 05:56:45;;;;;;;9.5;3.1;;;;;;;10.41;100;98856.89;;;;
2021/05/29 06:06:43;;;;;;;4.8;3.3;;;;;;;10.55;100;98863.85;;;;
2021/05/29 06:26:41;;;;;;;5.3;3.4;;;;;;;10.85;100;98875.12;;;;
2021/05/29 06:36:40;;;;;;;6;3.7;;;;;;;11.27;100;98876.63;;;;
2021/05/29 06:46:38;;;;;;;7.1;3.6;;;;;;;11.58;100;98888.31;;;;
2021/05/29 07:06:36;;;;;;;4.9;3.4;;;;;;;11.14;100;98901.75;;;;
2021/05/29 07:16:36;;;;;;;4.8;2.7;;;;;;;11.33;100;98899.69;;;;
2021/05/29 07:26:34;;;;;;;4.1;2.8;;;;;;;11.44;100;98907.26;;;;
2021/05/29 07:36:33;;;;;;;5.2;2.9;;;;;;;11.53;100;98907.31;;;;
2021/05/29 07:46:32;;;;;;;6.6;4.5;;;;;;;11.56;100;98896.7;;;;
2021/05/29 07:56:31;;;;;;;4.9;2.6;;;;;;;11.49;100;98911.72;;;;
2021/05/29 08:06:30;;;;;;;6.1;3.8;;;;;;;11.88;100;98905.7;;;;
2021/05/29 08:16:28;;;;;;;4.5;2.7;;;;;;;12.52;100;98912.41;;;;
2021/05/29 08:26:27;;;;;;;7.5;4.3;;;;;;;13.31;100;98915.83;;;;
2021/05/29 08:36:26;;;;;;;7.5;5.2;;;;;;;13.52;100;98911.39;;;;
2021/05/29 08:46:26;;;;;;;8.9;6;;;;;;;13.75;100;98912;;;;
2021/05/29 08:56:25;;;;;;;6.5;4.1;;;;;;;14.55;100;98894.14;;;;
2021/05/29 09:06:24;;;;;;;6;3.4;;;;;;;14.43;100;98892.13;;;;
2021/05/29 09:16:25;;;;;;;6.4;4;;;;;;;14.39;100;98895.8;;;;
2021/05/29 09:26:23;;;;;;;7.4;3.9;;;;;;;14.32;100;98895.48;;;;
2021/05/29 09:36:22;;;;;;;5.9;3.6;;;;;;;14.23;100;98889.3;;;;
2021/05/29 09:46:22;;;;;;;7.1;3.5;;;;;;;14.32;100;98888.14;;;;
2021/05/29 09:56:21;;;;;;;5.7;2.5;;;;;;;14.98;100;98873.02;;;;
2021/05/29 10:06:20;;;;;;;4.9;2.6;;;;;;;15.23;100;98875.88;;;;
2021/05/29 10:16:19;;;;;;;3.7;2.3;;;;;;;15.1;100;98864.94;;;;
2021/05/29 10:26:19;;;;;;;8.7;4.3;;;;;;;15.84;97.66406;98863.39;;;;
2021/05/29 10:36:18;;;;;;;7.5;3.7;;;;;;;16.62;90.67871;98857.89;;;;
2021/05/29 10:46:18;;;;;;;5.9;4.2;;;;;;;16.59;86.50098;98843.05;;;;
2021/05/29 11:06:31;;;;;;;6.2;3.2;;;;;;;16.84;82.16406;98850.05;;;;
2021/05/29 11:16:17;;;;;;;4.2;1.2;;;;;;;13.88;96.03809;98864.97;;;;
2021/05/29 11:26:16;;;;;;;3.9;2.6;;;;;;;12.86;100;98869.25;;;;
2021/05/29 11:36:15;;;;;;;6.2;2.8;;;;;;;13.21;100;98856.59;;;;
2021/05/29 11:46:14;;;;;;;3.5;2.1;;;;;;;12.55;100;98845;;;;
2021/05/29 11:56:14;;;;;;;3.3;2;;;;;;;13.32;100;98824.59;;;;
2021/05/29 12:06:13;;;;;;;3.4;1.5;;;;;;;15.13;99.47852;98838.27;;;;
2021/05/29 12:16:12;;;;;;;2.8;1.1;;;;;;;13.89;89.31641;98887.44;;;;
2021/05/29 12:26:11;;;;;;;3.7;1.6;;;;;;;11.07;100;98900.23;;;;
2021/05/29 12:36:12;;;;;;;2.1;1.2;;;;;;;10.46;100;98907.97;;;;
2021/05/29 12:46:23;;;;;;;2.6;1.2;;;;;;;10.5;100;98871.25;;;;
2021/05/29 12:56:08;;;;;;;3.2;1.1;;;;;;;11.26;100;98856.94;;;;
2021/05/29 13:16:05;;;;;;;3.5;1.2;;;;;;;13.58;100;98855.14;;;;
2021/05/29 13:26:04;;;;;;;1.1;0.6;;;;;;;14.61;100;98841.31;;;;
2021/05/29 13:36:03;;;;;;;3.8;1.6;;;;;;;15.34;100;98839.06;;;;
2021/05/29 13:46:03;;;;;;;2;1;;;;;;;15.79;100;98839.92;;;;
2021/05/29 13:56:02;;;;;;;2.7;1.5;;;;;;;16.75;98.37695;98830.33;;;;
2021/05/29 14:06:02;;;;;;;4;1.1;;;;;;;16.58;88.96191;98823.2;;;;
2021/05/29 14:16:02;;;;;;;3.2;1.3;;;;;;;15.83;93.56445;98823.74;;;;
2021/05/29 14:26:01;;;;;;;3.8;1.8;;;;;;;15.42;96.38184;98838.17;;;;
2021/05/29 14:36:01;;;;;;;4.2;2.3;;;;;;;13.85;100;98871.03;;;;
2021/05/29 14:46:00;;;;;;;4.4;1.7;;;;;;;11.74;100;98883.36;;;;
2021/05/29 14:55:59;;;;;;;2;1.2;;;;;;;10.64;100;98895.5;;;;
2021/05/29 15:05:58;;;;;;;3.3;2.1;;;;;;;10.05;100;98900.61;;;;
2021/05/29 15:15:56;;;;;;;6.8;3;;;;;;;9.92;100;98858.3;;;;
2021/05/29 15:25:56;;;;;;;20.6;16.2;;;;;;;10.33;100;98873.73;;;;
2021/05/29 15:35:54;;;;;;;5.6;4;;;;;;;10.53;100;98884.13;;;;
2021/05/29 15:45:52;;;;;;;7.5;5.2;;;;;;;10.64;100;98907.09;;;;
2021/05/29 15:55:51;;;;;;;6.1;4.3;;;;;;;10.66;100;98909.47;;;;
2021/05/29 16:05:50;;;;;;;9.3;4.9;;;;;;;10.59;100;98874.83;;;;
2021/05/29 16:15:49;;;;;;;7.4;4;;;;;;;10.28;100;98865.74;;;;
2021/05/29 16:25:47;;;;;;;6.5;4;;;;;;;10.43;100;98870.84;;;;
2021/05/29 16:35:49;;;;;;;5.8;4.3;;;;;;;10.48;100;98860.76;;;;
2021/05/29 16:45:45;;;;;;;6.8;5.1;;;;;;;10.27;100;98862.27;;;;
2021/05/29 16:55:44;;;;;;;9.5;5.9;;;;;;;10.71;100;98869.75;;;;
2021/05/29 17:05:42;;;;;;;5;3.9;;;;;;;11.54;100;98853.03;;;;
2021/05/29 17:15:41;;;;;;;6.6;4;;;;;;;11.03;100;98850.72;;;;
2021/05/29 17:25:40;;;;;;;7.3;3.7;;;;;;;10.63;100;98851.58;;;;
2021/05/29 17:35:40;;;;;;;8.6;4.8;;;;;;;10.32;100;98859.47;;;;
2021/05/29 17:45:38;;;;;;;9.1;5.2;;;;;;;10.33;100;98866.46;;;;
2021/05/29 17:55:37;;;;;;;9;6.4;;;;;;;10.13;100;98856.81;;;;
2021/05/29 18:05:35;;;;;;;9.6;5.6;;;;;;;9.85;100;98859.78;;;;
2021/05/29 18:15:34;;;;;;;8.2;4.3;;;;;;;9.71;100;98865.13;;;;
2021/05/29 18:25:33;;;;;;;10.3;5.5;;;;;;;9.29;100;98862.56;;;;
2021/05/29 18:35:31;;;;;;;10.2;5.2;;;;;;;9.02;100;98865.92;;;;
2021/05/29 18:45:30;;;;;;;7.8;4.5;;;;;;;9.08;100;98876.31;;;;
2021/05/29 18:55:32;;;;;;;10.3;4.8;;;;;;;9.06;100;98886.54;;;;
2021/05/29 19:05:32;;;;;;;8.3;4.2;;;;;;;9.09;100;98896.71;;;;
2021/05/29 19:15:26;;;;;;;7.5;4.3;;;;;;;9.1;100;98901.01;;;;
2021/05/29 19:25:48;;;;;;;9.4;4.9;;;;;;;9.13;100;98914.98;;;;
2021/05/29 19:45:45;;;;;;;10.5;6.4;;;;;;;9.29;100;98924.43;;;;
2021/05/29 20:25:20;;;;;;;12.5;10.5;;;;;;;9.13;100;98937.27;;;;
2021/05/29 20:35:15;;;;;;;22.9;12;;;;;;;9;100;98940.67;;;;
2021/05/29 20:45:15;;;;;;;15.8;11.2;;;;;;;8.79;100;98944.69;;;;
2021/05/29 20:55:12;;;;;;;11.3;10.1;;;;;;;8.7;100;98939.16;;;;
2021/05/29 21:05:12;;;;;;;16.3;10.3;;;;;;;8.6;100;98936.59;;;;
2021/05/29 21:15:15;;;;;;;19.6;13.3;;;;;;;8.62;100;98939.78;;;;
2021/05/29 21:25:08;;;;;;;16.1;12.4;;;;;;;8.62;100;98942.47;;;;
2021/05/29 21:35:06;;;;;;;13;9.7;;;;;;;8.5;100;98928.64;;;;
2021/05/29 21:49:13;;;;;;;15;11.1;;;;;;;8.46;100;98935.67;;;;
2021/05/29 21:55:03;;;;;;;20.9;11.1;;;;;;;8.49;100;98924.34;;;;
2021/05/29 22:05:02;;;;;;;16.5;12.4;;;;;;;8.53;100;98925.38;;;;
2021/05/29 22:35:00;;;;;;;12.1;8.5;;;;;;;8.37;100;98940.04;;;;
2021/05/29 22:44:56;;;;;;;11.8;9.1;;;;;;;8.35;100;98934.16;;;;
2021/05/29 22:54:54;;;;;;;10.1;8.2;;;;;;;8.35;100;98929.59;;;;
2021/05/29 23:04:53;;;;;;;11.1;8.6;;;;;;;8.35;100;98918.86;;;;
2021/05/29 23:14:51;;;;;;;12.9;9.8;;;;;;;8.38;100;98922.85;;;;
2021/05/29 23:24:49;;;;;;;12.4;10.3;;;;;;;8.39;100;98929.83;;;;
2021/05/29 23:34:48;;;;;;;14.6;10.5;;;;;;;8.54;100;98926.97;;;;
2021/05/29 23:44:46;;;;;;;13.3;11.9;;;;;;;8.66;100;98929.27;;;;
2021/05/29 23:54:45;;;;;;;16.5;11.5;;;;;;;8.73;100;98919.77;;;;
